SQC89X LFPG-EBLG
Flight info
| Callsign | SQC89X |
|---|---|
| Flight time | N/A |
| Altitude | 22000 |
| Route | NURMO DCT CMB DCT ROBAL/N0429F180 M617 CIV |
| Aircraft | B748/H-SDE3FGHIM1M2RWXY/LB1 |
Departure
| Time | N/A |
|---|---|
| Airport | Charles de Gaulle International Airport (LFPG) |
Arrival
| Time | 2026-04-30 18:06 |
|---|---|
| Airport | Liège Airport (EBLG) |
| Time | Latitude | Longitude | Altitude | Speed | Heading |
|---|---|---|---|---|---|
| 2026-04-30 17:39 | 49.39699 | 2.79166 | 17910 ft | 453 kts | 355° |
| 2026-04-30 17:41 | 49.65835 | 2.81028 | 22192 ft | 482 kts | 33° |
| 2026-04-30 17:42 | 49.71008 | 2.87506 | 22177 ft | 480 kts | 40° |
| 2026-04-30 17:42 | 49.79569 | 2.95678 | 22194 ft | 483 kts | 34° |
| 2026-04-30 17:43 | 49.85182 | 3.01364 | 22190 ft | 482 kts | 35° |
| 2026-04-30 17:44 | 49.93724 | 3.09634 | 22198 ft | 482 kts | 35° |
| 2026-04-30 17:44 | 50.02203 | 3.18070 | 22198 ft | 482 kts | 35° |
| 2026-04-30 17:46 | 50.16341 | 3.32150 | 22198 ft | 483 kts | 35° |
| 2026-04-30 17:47 | 50.27646 | 3.43466 | 22197 ft | 483 kts | 35° |
| 2026-04-30 17:48 | 50.38903 | 3.54896 | 22191 ft | 481 kts | 39° |
| 2026-04-30 17:48 | 50.44118 | 3.67520 | 21639 ft | 451 kts | 79° |
| 2026-04-30 17:49 | 50.43282 | 3.86606 | 19466 ft | 436 kts | 88° |
| 2026-04-30 17:50 | 50.44272 | 4.05304 | 17179 ft | 422 kts | 89° |
| 2026-04-30 17:51 | 50.44809 | 4.18869 | 15558 ft | 412 kts | 87° |
| 2026-04-30 17:52 | 50.45329 | 4.32317 | 13452 ft | 411 kts | 88° |
| 2026-04-30 17:53 | 50.46095 | 4.53335 | 10807 ft | 346 kts | 88° |
| 2026-04-30 17:54 | 50.46572 | 4.66528 | 9093 ft | 272 kts | 89° |
| 2026-04-30 17:55 | 50.46968 | 4.78161 | 7008 ft | 263 kts | 90° |
| 2026-04-30 17:56 | 50.47313 | 4.88399 | 4872 ft | 251 kts | 90° |
| 2026-04-30 17:57 | 50.47574 | 4.96788 | 3644 ft | 251 kts | 88° |
| 2026-04-30 17:58 | 50.47861 | 5.04503 | 3359 ft | 221 kts | 90° |
| 2026-04-30 17:59 | 50.48132 | 5.13243 | 3272 ft | 175 kts | 91° |
| 2026-04-30 18:00 | 50.48406 | 5.19864 | 3225 ft | 138 kts | 68° |
| 2026-04-30 18:00 | 50.50434 | 5.23220 | 3255 ft | 142 kts | 58° |
| 2026-04-30 18:01 | 50.51706 | 5.25580 | 3027 ft | 140 kts | 56° |
| 2026-04-30 18:02 | 50.53774 | 5.28878 | 3030 ft | 144 kts | 49° |
| 2026-04-30 18:02 | 50.55968 | 5.32032 | 2598 ft | 142 kts | 53° |
| 2026-04-30 18:03 | 50.58033 | 5.35399 | 2104 ft | 140 kts | 52° |
| 2026-04-30 18:04 | 50.60084 | 5.38692 | 1485 ft | 140 kts | 49° |
| 2026-04-30 18:05 | 50.62877 | 5.43041 | 661 ft | 138 kts | 45° |
| 2026-04-30 18:06 | 50.63834 | 5.44574 | 641 ft | 27 kts | 47° |
| 2026-04-30 18:07 | 50.64027 | 5.45228 | 625 ft | 17 kts | 49° |
| 2026-04-30 18:08 | 50.64062 | 5.45283 | 625 ft | 0 kts | 45° |
| 2026-04-30 18:09 | 50.64105 | 5.45367 | 634 ft | 3 kts | 83° |
| 2026-04-30 18:10 | 50.64032 | 5.45487 | 630 ft | 0 kts | 136° |